Wetterdaten: Donnerstag, 12.02.2015
Datum Zeit Auen-Temp. Temp. -10 cm Luftfeuchte Luftfeuchte Luftdruck Regen Wind Richtung Richtung Taupunkt Windchill Windben
12.02.2015 00:00 -8,9 C 1,3 C 79 % 79 % 1024,9 hPa 0,0 l/m 0,0 km/h (0 Bft) S 180 -11,9 C -9,8 C 0,0 km/h (0 Bft)
12.02.2015 00:05 -9,1 C 1,3 C 79 % 79 % 1024,9 hPa 0,0 l/m 0,0 km/h (0 Bft) S 180 -12,1 C -9,7 C 0,0 km/h (0 Bft)
12.02.2015 00:10 -9,2 C 1,3 C 79 % 79 % 1024,9 hPa 0,0 l/m 0,0 km/h (0 Bft) S 180 -12,2 C -9,6 C 0,0 km/h (0 Bft)
12.02.2015 00:15 -9,2 C 1,3 C 79 % 79 % 1024,8 hPa 0,0 l/m 0,0 km/h (0 Bft) S 180 -12,2 C -9,6 C 0,0 km/h (0 Bft)
12.02.2015 00:20 -9,3 C 1,3 C 79 % 79 % 1024,8 hPa 0,0 l/m 0,0 km/h (0 Bft) S 180 -12,2 C -9,7 C 0,0 km/h (0 Bft)
12.02.2015 00:25 -9,1 C 1,3 C 79 % 79 % 1024,8 hPa 0,0 l/m 0,0 km/h (0 Bft) S 180 -12,1 C -9,8 C 0,0 km/h (0 Bft)
12.02.2015 00:30 -9,1 C 1,3 C 79 % 79 % 1024,8 hPa 0,0 l/m 0,0 km/h (0 Bft) S 180 -12,1 C -9,9 C 0,0 km/h (0 Bft)
12.02.2015 00:35 -9,0 C 1,3 C 79 % 79 % 1024,8 hPa 0,0 l/m 0,0 km/h (0 Bft) S 180 -12,0 C -9,8 C 0,0 km/h (0 Bft)
12.02.2015 00:40 -9,3 C 1,3 C 79 % 79 % 1024,8 hPa 0,0 l/m 0,0 km/h (0 Bft) S 180 -12,2 C -9,8 C 0,0 km/h (0 Bft)
12.02.2015 00:45 -9,4 C 1,3 C 79 % 79 % 1024,8 hPa 0,0 l/m 0,0 km/h (0 Bft) S 180 -12,3 C -9,9 C 0,0 km/h (0 Bft)
12.02.2015 00:50 -9,2 C 1,3 C 79 % 79 % 1024,8 hPa 0,0 l/m 0,0 km/h (0 Bft) S-SW 202 -12,2 C -9,9 C 0,0 km/h (0 Bft)
12.02.2015 00:55 -9,6 C 1,3 C 79 % 79 % 1024,8 hPa 0,0 l/m 0,0 km/h (0 Bft) S 180 -12,5 C -9,9 C 0,0 km/h (0 Bft)
12.02.2015 01:00 -9,9 C 1,3 C 79 % 79 % 1024,8 hPa 0,0 l/m 0,0 km/h (0 Bft) S-SO 157 -12,8 C -10,0 C 0,0 km/h (0 Bft)
12.02.2015 01:05 -9,6 C 1,3 C 79 % 79 % 1024,8 hPa 0,0 l/m 0,0 km/h (0 Bft) S-SO 157 -12,5 C -10,0 C 0,0 km/h (0 Bft)
12.02.2015 01:10 -9,7 C 1,3 C 79 % 79 % 1024,8 hPa 0,0 l/m 0,0 km/h (0 Bft) S 180 -12,6 C -10,0 C 0,0 km/h (0 Bft)
12.02.2015 01:15 -9,6 C 1,3 C 79 % 79 % 1024,6 hPa 0,0 l/m 0,0 km/h (0 Bft) S 180 -12,5 C -10,0 C 0,0 km/h (0 Bft)
12.02.2015 01:20 -9,5 C 1,3 C 79 % 79 % 1024,6 hPa 0,0 l/m 0,0 km/h (0 Bft) S-SO 157 -12,4 C -10,2 C 0,0 km/h (0 Bft)
12.02.2015 01:25 -9,3 C 1,3 C 79 % 79 % 1024,6 hPa 0,0 l/m 0,0 km/h (0 Bft) SW 225 -12,2 C -10,0 C 0,0 km/h (0 Bft)
12.02.2015 01:30 -9,4 C 1,3 C 79 % 79 % 1024,6 hPa 0,0 l/m 0,0 km/h (0 Bft) SW 225 -12,3 C -10,0 C 0,0 km/h (0 Bft)
12.02.2015 01:35 -9,5 C 1,3 C 79 % 79 % 1024,6 hPa 0,0 l/m 0,0 km/h (0 Bft) SW 225 -12,4 C -10,0 C 0,0 km/h (0 Bft)
12.02.2015 01:40 -10,1 C 1,3 C 79 % 79 % 1024,6 hPa 0,0 l/m 0,0 km/h (0 Bft) SW 225 -13,0 C -10,3 C 0,0 km/h (0 Bft)
12.02.2015 01:45 -9,9 C 1,3 C 79 % 79 % 1024,6 hPa 0,0 l/m 0,0 km/h (0 Bft) S-SO 157 -12,8 C -10,4 C 0,0 km/h (0 Bft)
12.02.2015 01:50 -9,8 C 1,3 C 79 % 79 % 1024,6 hPa 0,0 l/m 0,0 km/h (0 Bft) S-SO 157 -12,7 C -10,3 C 0,0 km/h (0 Bft)
12.02.2015 01:55 -9,9 C 1,3 C 79 % 79 % 1024,5 hPa 0,0 l/m 0,0 km/h (0 Bft) S-SO 157 -12,8 C -10,2 C 0,0 km/h (0 Bft)
12.02.2015 02:00 -10,0 C 1,3 C 79 % 79 % 1024,5 hPa 0,0 l/m 0,0 km/h (0 Bft) S-SO 157 -12,9 C -10,2 C 0,0 km/h (0 Bft)
12.02.2015 02:05 -9,8 C 1,3 C 79 % 79 % 1024,5 hPa 0,0 l/m 0,0 km/h (0 Bft) W 270 -12,7 C -10,3 C 0,0 km/h (0 Bft)
12.02.2015 02:10 -10,2 C 1,3 C 79 % 79 % 1024,5 hPa 0,0 l/m 0,0 km/h (0 Bft) S 180 -13,1 C -10,6 C 0,0 km/h (0 Bft)
12.02.2015 02:15 -10,3 C 1,4 C 79 % 79 % 1024,4 hPa 0,0 l/m 0,0 km/h (0 Bft) S-SW 202 -13,2 C -10,7 C 0,0 km/h (0 Bft)
12.02.2015 02:20 -10,3 C 1,4 C 79 % 79 % 1024,4 hPa 0,0 l/m 0,0 km/h (0 Bft) S-SO 157 -13,2 C -10,7 C 0,0 km/h (0 Bft)
12.02.2015 02:25 -10,3 C 1,4 C 79 % 79 % 1024,4 hPa 0,0 l/m 0,0 km/h (0 Bft) S-SO 157 -13,2 C -10,6 C 0,0 km/h (0 Bft)
12.02.2015 02:30 -10,1 C 1,4 C 79 % 79 % 1024,4 hPa 0,0 l/m 0,0 km/h (0 Bft) S-SO 157 -13,0 C -10,4 C 0,0 km/h (0 Bft)
12.02.2015 02:35 -10,1 C 1,4 C 79 % 79 % 1024,2 hPa 0,0 l/m 0,0 km/h (0 Bft) SW 225 -13,0 C -10,4 C 0,0 km/h (0 Bft)
12.02.2015 02:40 -10,4 C 1,4 C 79 % 79 % 1024,2 hPa 0,0 l/m 0,0 km/h (0 Bft) S-SW 202 -13,3 C -10,6 C 0,0 km/h (0 Bft)
12.02.2015 02:45 -10,3 C 1,4 C 79 % 79 % 1024,2 hPa 0,0 l/m 0,0 km/h (0 Bft) SW 225 -13,2 C -10,8 C 0,0 km/h (0 Bft)
12.02.2015 02:50 -10,4 C 1,4 C 79 % 79 % 1024,2 hPa 0,0 l/m 0,0 km/h (0 Bft) S 180 -13,3 C -10,9 C 0,0 km/h (0 Bft)
12.02.2015 02:55 -10,3 C 1,4 C 79 % 79 % 1024,2 hPa 0,0 l/m 0,0 km/h (0 Bft) S-SO 157 -13,2 C -10,7 C 0,0 km/h (0 Bft)
12.02.2015 03:00 -10,1 C 1,4 C 79 % 79 % 1024,2 hPa 0,0 l/m 0,0 km/h (0 Bft) S-SO 157 -13,0 C -10,6 C 0,0 km/h (0 Bft)
12.02.2015 03:05 -10,1 C 1,4 C 79 % 79 % 1024,2 hPa 0,0 l/m 0,0 km/h (0 Bft) S-SO 157 -13,0 C -10,6 C 0,0 km/h (0 Bft)
12.02.2015 03:10 -10,0 C 1,4 C 79 % 79 % 1024,2 hPa 0,0 l/m 0,0 km/h (0 Bft) W-SW 247 -12,9 C -10,6 C 0,0 km/h (0 Bft)
12.02.2015 03:15 -10,1 C 1,4 C 79 % 79 % 1024,1 hPa 0,0 l/m 0,0 km/h (0 Bft) W-SW 247 -13,0 C -10,7 C 0,0 km/h (0 Bft)
12.02.2015 03:20 -10,1 C 1,4 C 79 % 79 % 1024,1 hPa 0,0 l/m 0,0 km/h (0 Bft) W-SW 247 -13,0 C -10,7 C 0,0 km/h (0 Bft)
12.02.2015 03:25 -10,3 C 1,4 C 79 % 79 % 1024,1 hPa 0,0 l/m 0,0 km/h (0 Bft) W-SW 247 -13,2 C -10,8 C 0,0 km/h (0 Bft)
12.02.2015 03:30 -10,5 C 1,4 C 79 % 79 % 1024,1 hPa 0,0 l/m 0,0 km/h (0 Bft) W-SW 247 -13,4 C -10,8 C 0,0 km/h (0 Bft)
12.02.2015 03:35 -10,7 C 1,2 C 79 % 79 % 1024,1 hPa 0,0 l/m 0,0 km/h (0 Bft) SO 135 -13,6 C -10,8 C 0,0 km/h (0 Bft)
12.02.2015 03:40 -10,6 C 1,4 C 79 % 79 % 1024,1 hPa 0,0 l/m 0,0 km/h (0 Bft) SO 135 -13,5 C -10,7 C 0,0 km/h (0 Bft)
12.02.2015 03:45 -10,6 C 1,4 C 79 % 79 % 1024,1 hPa 0,0 l/m 0,0 km/h (0 Bft) S-SO 157 -13,5 C -10,7 C 0,0 km/h (0 Bft)
12.02.2015 03:50 -10,6 C 1,4 C 79 % 79 % 1024,1 hPa 0,0 l/m 0,0 km/h (0 Bft) S-SO 157 -13,5 C -10,6 C 0,0 km/h (0 Bft)
12.02.2015 03:55 -10,6 C 1,4 C 79 % 79 % 1023,9 hPa 0,0 l/m 0,0 km/h (0 Bft) S-SO 157 -13,5 C -10,7 C 0,0 km/h (0 Bft)
12.02.2015 04:00 -10,6 C 1,4 C 79 % 79 % 1023,9 hPa 0,0 l/m 0,0 km/h (0 Bft) S-SO 157 -13,5 C -10,7 C 0,0 km/h (0 Bft)
12.02.2015 04:05 -10,6 C 1,4 C 79 % 79 % 1023,9 hPa 0,0 l/m 0,0 km/h (0 Bft) S-SO 157 -13,5 C -10,7 C 0,0 km/h (0 Bft)
12.02.2015 04:10 -10,6 C 1,4 C 79 % 79 % 1023,9 hPa 0,0 l/m 0,0 km/h (0 Bft) S-SO 157 -13,5 C -10,7 C 0,0 km/h (0 Bft)
12.02.2015 04:15 -10,6 C 1,4 C 79 % 79 % 1023,6 hPa 0,0 l/m 0,0 km/h (0 Bft) S-SO 157 -13,5 C -10,6 C 0,0 km/h (0 Bft)
12.02.2015 04:20 -10,6 C 1,4 C 79 % 79 % 1023,6 hPa 0,0 l/m 0,0 km/h (0 Bft) S-SO 157 -13,5 C -10,4 C 0,0 km/h (0 Bft)
12.02.2015 04:25 -10,6 C 1,4 C 79 % 79 % 1023,6 hPa 0,0 l/m 0,0 km/h (0 Bft) S-SO 157 -13,5 C -10,3 C 0,0 km/h (0 Bft)
12.02.2015 04:30 -9,7 C 1,4 C 79 % 79 % 1023,6 hPa 0,0 l/m 0,0 km/h (0 Bft) S-SO 157 -12,6 C -10,2 C 0,0 km/h (0 Bft)
12.02.2015 04:35 -9,6 C 1,3 C 79 % 79 % 1023,7 hPa 0,0 l/m 0,0 km/h (0 Bft) S-SO 157 -12,5 C -10,0 C 0,0 km/h (0 Bft)
12.02.2015 04:40 -9,3 C 1,3 C 79 % 79 % 1023,7 hPa 0,0 l/m 0,0 km/h (0 Bft) S-SO 157 -12,2 C -10,0 C 0,0 km/h (0 Bft)
12.02.2015 04:45 -9,4 C 1,3 C 79 % 79 % 1023,7 hPa 0,0 l/m 0,0 km/h (0 Bft) S-SO 157 -12,3 C -10,0 C 0,0 km/h (0 Bft)
12.02.2015 04:50 -9,8 C 1,3 C 79 % 79 % 1023,7 hPa 0,0 l/m 0,0 km/h (0 Bft) S-SO 157 -12,7 C -10,0 C 0,0 km/h (0 Bft)
12.02.2015 04:55 -9,6 C 1,3 C 79 % 79 % 1023,8 hPa 0,0 l/m 0,0 km/h (0 Bft) S-SO 157 -12,5 C -10,0 C 0,0 km/h (0 Bft)
12.02.2015 05:00 -8,9 C 1,3 C 79 % 79 % 1023,8 hPa 0,0 l/m 0,0 km/h (0 Bft) S 180 -11,9 C -9,4 C 0,0 km/h (0 Bft)
12.02.2015 05:05 -8,9 C 1,3 C 79 % 79 % 1023,8 hPa 0,0 l/m 0,0 km/h (0 Bft) S-SO 157 -11,9 C -9,3 C 0,0 km/h (0 Bft)
12.02.2015 05:10 -8,9 C 1,3 C 79 % 79 % 1023,8 hPa 0,0 l/m 0,0 km/h (0 Bft) S 180 -11,9 C -8,9 C 0,0 km/h (0 Bft)
12.02.2015 05:15 -8,9 C 1,3 C 79 % 79 % 1023,6 hPa 0,0 l/m 0,0 km/h (0 Bft) W-SW 247 -11,9 C -8,9 C 0,0 km/h (0 Bft)
12.02.2015 05:20 -8,9 C 1,3 C 79 % 79 % 1023,6 hPa 0,0 l/m 0,2 km/h (0 Bft) O-NO 67 -11,9 C -8,7 C 1,8 km/h (1 Bft)
12.02.2015 05:25 -9,5 C 1,3 C 79 % 79 % 1023,6 hPa 0,0 l/m 0,2 km/h (0 Bft) NO 45 -12,4 C -9,1 C 1,9 km/h (1 Bft)
12.02.2015 05:30 -9,7 C 1,3 C 79 % 79 % 1023,6 hPa 0,0 l/m 0,2 km/h (0 Bft) NO 45 -12,6 C -9,6 C 0,0 km/h (0 Bft)
12.02.2015 05:35 -9,6 C 1,3 C 79 % 79 % 1023,6 hPa 0,0 l/m 0,0 km/h (0 Bft) NO 45 -12,5 C -9,8 C 0,0 km/h (0 Bft)
12.02.2015 05:40 -9,3 C 1,3 C 79 % 79 % 1023,6 hPa 0,0 l/m 0,0 km/h (0 Bft) NO 45 -12,2 C -9,8 C 0,0 km/h (0 Bft)
12.02.2015 05:45 -9,0 C 1,3 C 79 % 79 % 1023,6 hPa 0,0 l/m 0,0 km/h (0 Bft) W-SW 247 -12,0 C -9,7 C 0,0 km/h (0 Bft)
12.02.2015 05:50 -9,4 C 1,3 C 79 % 79 % 1023,6 hPa 0,0 l/m 0,0 km/h (0 Bft) W-SW 247 -12,3 C -9,8 C 0,0 km/h (0 Bft)
12.02.2015 05:55 -9,3 C 1,3 C 79 % 79 % 1023,5 hPa 0,0 l/m 0,0 km/h (0 Bft) W-SW 247 -12,2 C -9,8 C 0,0 km/h (0 Bft)
12.02.2015 06:00 -9,1 C 1,3 C 79 % 79 % 1023,5 hPa 0,0 l/m 0,0 km/h (0 Bft) NW 315 -12,1 C -9,9 C 0,0 km/h (0 Bft)
12.02.2015 06:05 -9,6 C 1,3 C 79 % 79 % 1023,5 hPa 0,0 l/m 0,0 km/h (0 Bft) NW 315 -12,5 C -10,0 C 0,0 km/h (0 Bft)
12.02.2015 06:10 -9,7 C 1,3 C 79 % 79 % 1023,5 hPa 0,0 l/m 0,0 km/h (0 Bft) NW 315 -12,6 C -10,3 C 0,0 km/h (0 Bft)
12.02.2015 06:15 -9,8 C 1,3 C 79 % 79 % 1023,6 hPa 0,0 l/m 0,0 km/h (0 Bft) S-SO 157 -12,7 C -10,3 C 0,0 km/h (0 Bft)
12.02.2015 06:20 -9,9 C 1,3 C 79 % 79 % 1023,6 hPa 0,0 l/m 0,0 km/h (0 Bft) S-SO 157 -12,8 C -10,2 C 0,0 km/h (0 Bft)
12.02.2015 06:25 -9,6 C 1,3 C 79 % 79 % 1023,6 hPa 0,0 l/m 0,0 km/h (0 Bft) S-SO 157 -12,5 C -10,0 C 0,0 km/h (0 Bft)
12.02.2015 06:30 -9,7 C 1,3 C 79 % 79 % 1023,6 hPa 0,0 l/m 0,0 km/h (0 Bft) S-SO 157 -12,6 C -10,2 C 0,0 km/h (0 Bft)
12.02.2015 06:35 -9,5 C 1,3 C 79 % 79 % 1023,7 hPa 0,0 l/m 0,0 km/h (0 Bft) S-SO 157 -12,4 C -10,2 C 0,0 km/h (0 Bft)
12.02.2015 06:40 -9,9 C 1,3 C 79 % 79 % 1023,7 hPa 0,0 l/m 0,0 km/h (0 Bft) S-SO 157 -12,8 C -10,2 C 0,0 km/h (0 Bft)
12.02.2015 06:45 -10,2 C 1,3 C 79 % 79 % 1023,7 hPa 0,0 l/m 0,0 km/h (0 Bft) S-SO 157 -13,1 C -10,4 C 0,0 km/h (0 Bft)
12.02.2015 06:50 -10,0 C 1,3 C 79 % 79 % 1023,7 hPa 0,0 l/m 0,0 km/h (0 Bft) S-SO 157 -12,9 C -10,6 C 0,0 km/h (0 Bft)
12.02.2015 06:55 -9,7 C 1,3 C 79 % 79 % 1023,4 hPa 0,0 l/m 0,0 km/h (0 Bft) SO 135 -12,6 C -10,4 C 0,0 km/h (0 Bft)
12.02.2015 07:00 -9,9 C 1,3 C 79 % 79 % 1023,4 hPa 0,0 l/m 0,0 km/h (0 Bft) SO 135 -12,8 C -10,3 C 0,0 km/h (0 Bft)
12.02.2015 07:05 -9,7 C 1,3 C 79 % 79 % 1023,4 hPa 0,0 l/m 0,0 km/h (0 Bft) SO 135 -12,6 C -10,3 C 0,0 km/h (0 Bft)
12.02.2015 07:10 -9,7 C 1,3 C 79 % 79 % 1023,4 hPa 0,0 l/m 0,0 km/h (0 Bft) SO 135 -12,6 C -10,2 C 0,0 km/h (0 Bft)
12.02.2015 07:15 -9,6 C 1,3 C 79 % 79 % 1023,8 hPa 0,0 l/m 0,0 km/h (0 Bft) SO 135 -12,5 C -10,2 C 0,0 km/h (0 Bft)
12.02.2015 07:20 -9,6 C 1,3 C 79 % 79 % 1023,8 hPa 0,0 l/m 0,0 km/h (0 Bft) SO 135 -12,5 C -10,0 C 0,0 km/h (0 Bft)
12.02.2015 07:25 -9,3 C 1,3 C 79 % 79 % 1023,8 hPa 0,0 l/m 0,0 km/h (0 Bft) SO 135 -12,2 C -10,0 C 0,0 km/h (0 Bft)
12.02.2015 07:30 -9,5 C 1,3 C 79 % 79 % 1023,8 hPa 0,0 l/m 0,0 km/h (0 Bft) S-SW 202 -12,4 C -10,0 C 0,0 km/h (0 Bft)
12.02.2015 07:35 -9,6 C 1,3 C 79 % 79 % 1023,8 hPa 0,0 l/m 0,0 km/h (0 Bft) S-SW 202 -12,5 C -10,0 C 0,0 km/h (0 Bft)
12.02.2015 07:40 -9,6 C 1,3 C 79 % 79 % 1023,8 hPa 0,0 l/m 0,0 km/h (0 Bft) S-SW 202 -12,5 C -10,0 C 0,0 km/h (0 Bft)
12.02.2015 07:45 -9,6 C 1,3 C 79 % 79 % 1023,8 hPa 0,0 l/m 0,0 km/h (0 Bft) S 180 -12,5 C -10,0 C 0,0 km/h (0 Bft)
12.02.2015 07:50 -9,5 C 1,3 C 79 % 79 % 1023,8 hPa 0,0 l/m 0,0 km/h (0 Bft) S 180 -12,4 C -10,0 C 0,0 km/h (0 Bft)
12.02.2015 07:55 -9,4 C 1,3 C 79 % 79 % 1023,9 hPa 0,0 l/m 0,0 km/h (0 Bft) S 180 -12,3 C -9,9 C 0,0 km/h (0 Bft)
12.02.2015 08:00 -9,3 C 1,3 C 79 % 79 % 1023,9 hPa 0,0 l/m 0,0 km/h (0 Bft) S-SO 157 -12,2 C -9,8 C 0,0 km/h (0 Bft)
12.02.2015 08:05 -9,1 C 1,3 C 79 % 79 % 1023,9 hPa 0,0 l/m 0,0 km/h (0 Bft) S 180 -12,1 C -9,8 C 0,0 km/h (0 Bft)
12.02.2015 08:10 -9,2 C 1,3 C 79 % 79 % 1023,9 hPa 0,0 l/m 0,0 km/h (0 Bft) S-SO 157 -12,2 C -9,7 C 0,0 km/h (0 Bft)
12.02.2015 08:15 -9,1 C 1,3 C 79 % 79 % 1023,8 hPa 0,0 l/m 0,0 km/h (0 Bft) S-SO 157 -12,1 C -9,6 C 0,0 km/h (0 Bft)
12.02.2015 08:20 -8,9 C 1,3 C 79 % 79 % 1023,8 hPa 0,0 l/m 0,0 km/h (0 Bft) SO 135 -11,9 C -9,3 C 0,0 km/h (0 Bft)
12.02.2015 08:25 -8,5 C 1,3 C 79 % 79 % 1023,8 hPa 0,0 l/m 0,0 km/h (0 Bft) S-SO 157 -11,5 C -9,1 C 0,0 km/h (0 Bft)
12.02.2015 08:30 -8,3 C 1,3 C 79 % 79 % 1023,8 hPa 0,0 l/m 0,0 km/h (0 Bft) S-SO 157 -11,3 C -8,8 C 0,0 km/h (0 Bft)
12.02.2015 08:35 -8,0 C 1,3 C 79 % 79 % 1023,9 hPa 0,0 l/m 0,0 km/h (0 Bft) SO 135 -11,0 C -8,6 C 0,0 km/h (0 Bft)
12.02.2015 08:40 -7,4 C 1,3 C 80 % 80 % 1023,9 hPa 0,0 l/m 0,0 km/h (0 Bft) S 180 -10,2 C -7,9 C 0,0 km/h (0 Bft)
12.02.2015 08:45 -7,3 C 1,3 C 79 % 79 % 1023,9 hPa 0,0 l/m 0,0 km/h (0 Bft) S 180 -10,3 C -7,5 C 0,0 km/h (0 Bft)
12.02.2015 08:50 -7,5 C 1,3 C 80 % 80 % 1023,9 hPa 0,0 l/m 0,0 km/h (0 Bft) S-SO 157 -10,3 C -7,6 C 0,0 km/h (0 Bft)
12.02.2015 08:55 -7,3 C 1,3 C 80 % 80 % 1024,0 hPa 0,0 l/m 0,0 km/h (0 Bft) S-SO 157 -10,1 C -7,5 C 0,0 km/h (0 Bft)
12.02.2015 09:00 -7,1 C 1,3 C 80 % 80 % 1024,0 hPa 0,0 l/m 0,0 km/h (0 Bft) S 180 -9,9 C -7,5 C 0,0 km/h (0 Bft)
12.02.2015 09:05 -7,0 C 1,3 C 80 % 80 % 1024,0 hPa 0,0 l/m 0,0 km/h (0 Bft) S 180 -9,9 C -7,4 C 0,0 km/h (0 Bft)
12.02.2015 09:10 -6,7 C 1,3 C 80 % 80 % 1024,0 hPa 0,0 l/m 0,0 km/h (0 Bft) S-SO 157 -9,6 C -7,2 C 0,0 km/h (0 Bft)
12.02.2015 09:15 -6,6 C 1,3 C 80 % 80 % 1024,1 hPa 0,0 l/m 0,0 km/h (0 Bft) S 180 -9,5 C -7,1 C 0,0 km/h (0 Bft)
12.02.2015 09:20 -6,2 C 1,3 C 81 % 81 % 1024,1 hPa 0,0 l/m 0,0 km/h (0 Bft) S-SO 157 -8,9 C -6,9 C 0,0 km/h (0 Bft)
12.02.2015 09:25 -5,9 C 1,3 C 81 % 81 % 1024,1 hPa 0,0 l/m 0,0 km/h (0 Bft) S-SO 157 -8,6 C -6,7 C 0,0 km/h (0 Bft)
12.02.2015 09:30 -5,7 C 1,3 C 81 % 81 % 1024,1 hPa 0,0 l/m 0,0 km/h (0 Bft) S-SO 157 -8,4 C -6,4 C 0,0 km/h (0 Bft)
12.02.2015 09:35 -5,4 C 1,4 C 81 % 81 % 1024,3 hPa 0,0 l/m 0,0 km/h (0 Bft) S 180 -8,1 C -6,1 C 0,0 km/h (0 Bft)
12.02.2015 09:40 -4,8 C 1,4 C 82 % 82 % 1024,3 hPa 0,0 l/m 0,0 km/h (0 Bft) S 180 -7,4 C -5,6 C 0,0 km/h (0 Bft)
12.02.2015 09:45 -4,7 C 1,4 C 82 % 82 % 1024,3 hPa 0,0 l/m 0,0 km/h (0 Bft) S-SO 157 -7,3 C -5,4 C 0,0 km/h (0 Bft)
12.02.2015 09:50 -4,1 C 1,4 C 82 % 82 % 1024,3 hPa 0,0 l/m 0,0 km/h (0 Bft) S-SO 157 -6,7 C -5,0 C 0,0 km/h (0 Bft)
12.02.2015 09:55 -4,0 C 1,3 C 82 % 82 % 1024,4 hPa 0,0 l/m 0,0 km/h (0 Bft) S 180 -6,6 C -4,7 C 0,0 km/h (0 Bft)
12.02.2015 10:00 -3,9 C 1,3 C 82 % 82 % 1024,4 hPa 0,0 l/m 0,0 km/h (0 Bft) S-SW 202 -6,5 C -4,4 C 0,0 km/h (0 Bft)
12.02.2015 10:05 -4,0 C 1,3 C 82 % 82 % 1024,4 hPa 0,0 l/m 0,0 km/h (0 Bft) S 180 -6,6 C -4,3 C 0,0 km/h (0 Bft)
12.02.2015 10:10 -4,1 C 1,3 C 82 % 82 % 1024,4 hPa 0,0 l/m 0,0 km/h (0 Bft) S 180 -6,7 C -4,1 C 0,0 km/h (0 Bft)
12.02.2015 10:15 -4,0 C 1,3 C 82 % 82 % 1024,6 hPa 0,0 l/m 0,0 km/h (0 Bft) S 180 -6,6 C -4,1 C 0,0 km/h (0 Bft)
12.02.2015 10:20 -3,6 C 1,3 C 83 % 83 % 1024,6 hPa 0,0 l/m 0,0 km/h (0 Bft) S 180 -6,1 C -3,9 C 0,0 km/h (0 Bft)
12.02.2015 10:25 -2,9 C 1,3 C 83 % 83 % 1024,6 hPa 0,0 l/m 0,0 km/h (0 Bft) S-SO 157 -5,4 C -3,4 C 0,0 km/h (0 Bft)
12.02.2015 10:30 -2,6 C 1,3 C 83 % 83 % 1024,6 hPa 0,0 l/m 0,0 km/h (0 Bft) S 180 -5,1 C -2,6 C 0,0 km/h (0 Bft)
12.02.2015 10:35 -2,8 C 1,3 C 83 % 83 % 1024,6 hPa 0,0 l/m 0,0 km/h (0 Bft) S-SO 157 -5,3 C -2,4 C 0,0 km/h (0 Bft)
12.02.2015 10:40 -2,4 C 1,3 C 83 % 83 % 1024,6 hPa 0,0 l/m 0,0 km/h (0 Bft) S 180 -4,9 C -2,3 C 0,0 km/h (0 Bft)
12.02.2015 10:45 -2,1 C 1,3 C 83 % 83 % 1024,6 hPa 0,0 l/m 0,0 km/h (0 Bft) S 180 -4,6 C -2,0 C 0,0 km/h (0 Bft)
12.02.2015 10:50 -1,7 C 1,3 C 84 % 84 % 1024,6 hPa 0,0 l/m 0,0 km/h (0 Bft) S-SO 157 -4,0 C -1,7 C 0,0 km/h (0 Bft)
12.02.2015 10:55 -1,5 C 1,3 C 84 % 84 % 1024,6 hPa 0,0 l/m 0,0 km/h (0 Bft) S 180 -3,8 C -1,7 C 0,0 km/h (0 Bft)
12.02.2015 11:00 -0,8 C 1,3 C 84 % 84 % 1024,6 hPa 0,0 l/m 0,0 km/h (0 Bft) S 180 -3,2 C -1,4 C 0,0 km/h (0 Bft)
12.02.2015 11:05 -0,2 C 1,4 C 84 % 84 % 1024,6 hPa 0,0 l/m 0,0 km/h (0 Bft) S 180 -2,6 C -0,7 C 0,0 km/h (0 Bft)
12.02.2015 11:10 0,1 C 1,4 C 84 % 84 % 1024,6 hPa 0,0 l/m 0,0 km/h (0 Bft) S 180 -2,3 C 0,8 C 0,0 km/h (0 Bft)
12.02.2015 11:15 0,2 C 1,4 C 84 % 84 % 1025,4 hPa 0,0 l/m 0,0 km/h (0 Bft) S 180 -2,2 C 2,8 C 0,0 km/h (0 Bft)
12.02.2015 11:20 0,2 C 1,4 C 85 % 85 % 1025,4 hPa 0,0 l/m 0,0 km/h (0 Bft) S 180 -2,0 C 3,0 C 0,0 km/h (0 Bft)
12.02.2015 11:25 0,3 C 1,4 C 85 % 85 % 1025,4 hPa 0,0 l/m 0,0 km/h (0 Bft) S-SW 202 -1,9 C 4,1 C 0,0 km/h (0 Bft)
12.02.2015 11:30 0,5 C 1,4 C 85 % 85 % 1025,4 hPa 0,0 l/m 0,0 km/h (0 Bft) S-SW 202 -1,7 C 6,7 C 0,0 km/h (0 Bft)
12.02.2015 11:35 0,6 C 1,4 C 85 % 85 % 1025,3 hPa 0,0 l/m 0,0 km/h (0 Bft) S 180 -1,6 C 7,0 C 0,0 km/h (0 Bft)
12.02.2015 11:40 1,0 C 1,3 C 85 % 85 % 1025,3 hPa 0,0 l/m 0,0 km/h (0 Bft) S 180 -1,2 C 6,7 C 0,0 km/h (0 Bft)
12.02.2015 11:45 1,0 C 1,3 C 85 % 85 % 1025,3 hPa 0,0 l/m 0,0 km/h (0 Bft) S 180 -1,2 C 8,8 C 0,0 km/h (0 Bft)
12.02.2015 11:50 1,2 C 1,3 C 85 % 85 % 1025,3 hPa 0,0 l/m 0,0 km/h (0 Bft) SW 225 -1,0 C 10,3 C 0,0 km/h (0 Bft)
12.02.2015 11:55 1,2 C 1,3 C 85 % 85 % 1026,1 hPa 0,0 l/m 0,0 km/h (0 Bft) S-SO 157 -1,0 C 11,4 C 0,0 km/h (0 Bft)
12.02.2015 12:00 1,2 C 1,3 C 85 % 85 % 1026,1 hPa 0,0 l/m 0,0 km/h (0 Bft) S 180 -1,0 C 12,1 C 0,0 km/h (0 Bft)
12.02.2015 12:05 1,3 C 1,3 C 85 % 85 % 1026,1 hPa 0,0 l/m 0,0 km/h (0 Bft) S 180 -0,9 C 11,5 C 0,0 km/h (0 Bft)
12.02.2015 12:10 1,5 C 1,3 C 86 % 86 % 1026,1 hPa 0,0 l/m 0,0 km/h (0 Bft) W-SW 247 -0,6 C 10,4 C 0,0 km/h (0 Bft)
12.02.2015 12:15 1,7 C 1,3 C 86 % 86 % 1027,0 hPa 0,0 l/m 0,0 km/h (0 Bft) SW 225 -0,4 C 11,7 C 0,0 km/h (0 Bft)
12.02.2015 12:20 1,9 C 1,3 C 86 % 86 % 1027,0 hPa 0,0 l/m 0,0 km/h (0 Bft) SW 225 -0,2 C 11,7 C 0,0 km/h (0 Bft)
12.02.2015 12:25 2,0 C 1,3 C 86 % 86 % 1027,0 hPa 0,0 l/m 0,0 km/h (0 Bft) SW 225 -0,1 C 10,5 C 0,0 km/h (0 Bft)
12.02.2015 12:30 2,2 C 1,3 C 86 % 86 % 1027,0 hPa 0,0 l/m 0,0 km/h (0 Bft) W-SW 247 0,1 C 8,8 C 0,0 km/h (0 Bft)
12.02.2015 12:35 2,4 C 1,3 C 86 % 86 % 1027,2 hPa 0,0 l/m 0,0 km/h (0 Bft) W-SW 247 0,3 C 8,3 C 0,0 km/h (0 Bft)
12.02.2015 12:40 2,5 C 1,3 C 85 % 85 % 1027,2 hPa 0,0 l/m 0,0 km/h (0 Bft) W 270 0,2 C 6,7 C 0,0 km/h (0 Bft)
12.02.2015 12:45 2,5 C 1,3 C 85 % 85 % 1027,2 hPa 0,0 l/m 0,0 km/h (0 Bft) S 180 0,2 C 6,3 C 0,0 km/h (0 Bft)
12.02.2015 12:50 2,6 C 1,3 C 85 % 85 % 1027,2 hPa 0,0 l/m 0,0 km/h (0 Bft) W-SW 247 0,3 C 6,1 C 0,0 km/h (0 Bft)
12.02.2015 12:55 2,7 C 1,3 C 84 % 84 % 1026,4 hPa 0,0 l/m 0,0 km/h (0 Bft) W-SW 247 0,3 C 6,3 C 0,0 km/h (0 Bft)
12.02.2015 13:00 3,2 C 1,3 C 82 % 82 % 1026,4 hPa 0,0 l/m 0,0 km/h (0 Bft) S 180 0,4 C 6,8 C 0,0 km/h (0 Bft)
12.02.2015 13:05 3,6 C 1,3 C 82 % 82 % 1026,4 hPa 0,0 l/m 0,0 km/h (0 Bft) W-SW 247 0,8 C 8,6 C 0,0 km/h (0 Bft)
12.02.2015 13:10 4,0 C 1,3 C 81 % 81 % 1026,4 hPa 0,0 l/m 0,0 km/h (0 Bft) W 270 1,0 C 9,8 C 0,0 km/h (0 Bft)
12.02.2015 13:15 4,3 C 1,3 C 80 % 80 % 1026,2 hPa 0,0 l/m 0,0 km/h (0 Bft) W 270 1,2 C 10,6 C 0,0 km/h (0 Bft)
12.02.2015 13:20 4,4 C 1,3 C 80 % 80 % 1026,2 hPa 0,0 l/m 0,0 km/h (0 Bft) NO 45 1,3 C 9,7 C 2,3 km/h (1 Bft)
12.02.2015 13:25 4,3 C 1,2 C 79 % 79 % 1026,2 hPa 0,0 l/m 0,2 km/h (0 Bft) N-NO 22 1,0 C 8,5 C 0,0 km/h (0 Bft)
12.02.2015 13:30 5,0 C 1,3 C 78 % 78 % 1026,2 hPa 0,0 l/m 0,2 km/h (0 Bft) NW 315 1,5 C 7,9 C 0,0 km/h (0 Bft)
12.02.2015 13:35 5,4 C 1,2 C 78 % 78 % 1026,1 hPa 0,0 l/m 0,0 km/h (0 Bft) N 360 1,9 C 7,9 C 0,0 km/h (0 Bft)
12.02.2015 13:40 6,9 C 1,3 C 78 % 78 % 1026,1 hPa 0,0 l/m 0,0 km/h (0 Bft) O-NO 67 3,3 C 9,3 C 0,0 km/h (0 Bft)
12.02.2015 13:45 7,9 C 1,3 C 77 % 77 % 1026,1 hPa 0,0 l/m 0,0 km/h (0 Bft) NO 45 4,1 C 10,5 C 0,0 km/h (0 Bft)
12.02.2015 13:50 9,4 C 1,2 C 75 % 75 % 1026,1 hPa 0,0 l/m 0,0 km/h (0 Bft) N-NO 22 5,2 C 12,5 C 0,0 km/h (0 Bft)
12.02.2015 13:55 10,0 C 1,2 C 74 % 74 % 1026,2 hPa 0,0 l/m 0,0 km/h (0 Bft) NO 45 5,6 C 13,8 C 0,0 km/h (0 Bft)
12.02.2015 14:00 10,9 C 1,2 C 72 % 72 % 1026,2 hPa 0,0 l/m 0,0 km/h (0 Bft) N-NW 337 6,1 C 15,2 C 0,0 km/h (0 Bft)
12.02.2015 14:05 11,2 C 1,2 C 71 % 71 % 1026,2 hPa 0,0 l/m 0,0 km/h (0 Bft) N-NW 337 6,1 C 16,2 C 0,0 km/h (0 Bft)
12.02.2015 14:10 11,7 C 1,2 C 68 % 68 % 1026,2 hPa 0,0 l/m 0,0 km/h (0 Bft) O 90 6,0 C 17,0 C 0,0 km/h (0 Bft)
12.02.2015 14:15 12,0 C 1,2 C 67 % 67 % 1026,0 hPa 0,0 l/m 0,0 km/h (0 Bft) O 90 6,1 C 17,3 C 0,0 km/h (0 Bft)
12.02.2015 14:20 12,3 C 1,3 C 66 % 66 % 1026,0 hPa 0,0 l/m 0,0 km/h (0 Bft) N-NW 337 6,1 C 17,8 C 0,0 km/h (0 Bft)
12.02.2015 14:25 11,7 C 1,3 C 65 % 65 % 1026,0 hPa 0,0 l/m 0,0 km/h (0 Bft) O-SO 112 5,3 C 18,0 C 0,0 km/h (0 Bft)
12.02.2015 14:30 12,2 C 1,3 C 63 % 63 % 1026,0 hPa 0,0 l/m 0,0 km/h (0 Bft) SO 135 5,4 C 18,0 C 0,0 km/h (0 Bft)
12.02.2015 14:35 12,1 C 1,3 C 63 % 63 % 1025,1 hPa 0,0 l/m 0,0 km/h (0 Bft) SO 135 5,3 C 17,9 C 0,0 km/h (0 Bft)
12.02.2015 14:40 12,5 C 1,2 C 62 % 62 % 1025,1 hPa 0,0 l/m 0,0 km/h (0 Bft) O-SO 112 5,4 C 18,2 C 0,0 km/h (0 Bft)
12.02.2015 14:45 12,6 C 1,2 C 62 % 62 % 1025,1 hPa 0,0 l/m 0,0 km/h (0 Bft) O-SO 112 5,5 C 18,3 C 0,0 km/h (0 Bft)
12.02.2015 14:50 12,1 C 1,2 C 60 % 60 % 1025,1 hPa 0,0 l/m 0,0 km/h (0 Bft) NW 315 4,6 C 18,3 C 0,0 km/h (0 Bft)
12.02.2015 14:56 12,1 C 1,3 C 59 % 59 % 1025,4 hPa 0,0 l/m 0,0 km/h (0 Bft) N-NW 337 4,3 C 18,0 C 0,0 km/h (0 Bft)
12.02.2015 15:00 11,8 C 1,3 C 59 % 59 % 1025,4 hPa 0,0 l/m 0,0 km/h (0 Bft) NO 45 4,1 C 17,8 C 1,8 km/h (1 Bft)
12.02.2015 15:05 11,6 C 1,3 C 59 % 59 % 1025,4 hPa 0,0 l/m 0,0 km/h (0 Bft) O-NO 67 3,9 C 17,6 C 0,0 km/h (0 Bft)
12.02.2015 15:10 11,3 C 1,2 C 59 % 59 % 1025,4 hPa 0,0 l/m 0,0 km/h (0 Bft) O-SO 112 3,6 C 16,9 C 0,0 km/h (0 Bft)
12.02.2015 15:15 11,3 C 1,2 C 59 % 59 % 1025,2 hPa 0,0 l/m 0,0 km/h (0 Bft) O-SO 112 3,6 C 16,8 C 0,0 km/h (0 Bft)
12.02.2015 15:20 11,0 C 1,2 C 58 % 58 % 1025,2 hPa 0,0 l/m 0,0 km/h (0 Bft) SO 135 3,1 C 16,5 C 0,0 km/h (0 Bft)
12.02.2015 15:25 10,5 C 1,2 C 58 % 58 % 1025,2 hPa 0,0 l/m 0,0 km/h (0 Bft) O-SO 112 2,6 C 16,1 C 0,0 km/h (0 Bft)
12.02.2015 15:30 9,7 C 1,2 C 58 % 58 % 1025,2 hPa 0,0 l/m 0,0 km/h (0 Bft) S-SO 157 1,8 C 15,3 C 2,3 km/h (1 Bft)
12.02.2015 15:35 8,7 C 1,2 C 58 % 58 % 1024,8 hPa 0,0 l/m 0,0 km/h (0 Bft) S-SO 157 0,9 C 14,3 C 0,0 km/h (0 Bft)
12.02.2015 15:40 8,2 C 1,2 C 59 % 59 % 1024,8 hPa 0,0 l/m 0,2 km/h (0 Bft) O-SO 112 0,7 C 12,1 C 0,0 km/h (0 Bft)
12.02.2015 15:45 8,0 C 1,2 C 59 % 59 % 1024,8 hPa 0,0 l/m 0,0 km/h (0 Bft) SO 135 0,5 C 11,7 C 0,0 km/h (0 Bft)
12.02.2015 15:50 6,6 C 1,2 C 59 % 59 % 1024,8 hPa 0,0 l/m 0,0 km/h (0 Bft) S-SO 157 -0,8 C 11,3 C 0,0 km/h (0 Bft)
12.02.2015 15:55 5,5 C 1,1 C 60 % 60 % 1024,5 hPa 0,0 l/m 0,0 km/h (0 Bft) S-SO 157 -1,6 C 9,6 C 0,0 km/h (0 Bft)
12.02.2015 16:00 4,7 C 1,1 C 63 % 63 % 1024,5 hPa 0,0 l/m 0,0 km/h (0 Bft) SO 135 -1,7 C 7,3 C 0,0 km/h (0 Bft)
12.02.2015 16:05 4,4 C 1,2 C 64 % 64 % 1024,5 hPa 0,0 l/m 0,0 km/h (0 Bft) S-SO 157 -1,8 C 6,1 C 0,0 km/h (0 Bft)
12.02.2015 16:10 4,0 C 1,2 C 65 % 65 % 1024,5 hPa 0,0 l/m 0,0 km/h (0 Bft) SO 135 -2,0 C 4,8 C 0,0 km/h (0 Bft)
12.02.2015 16:15 3,8 C 1,2 C 65 % 65 % 1024,2 hPa 0,0 l/m 0,0 km/h (0 Bft) SO 135 -2,2 C 4,0 C 0,0 km/h (0 Bft)
12.02.2015 16:20 3,6 C 1,2 C 66 % 66 % 1024,2 hPa 0,0 l/m 0,0 km/h (0 Bft) S-SO 157 -2,1 C 3,3 C 0,0 km/h (0 Bft)
12.02.2015 16:25 3,5 C 1,2 C 66 % 66 % 1024,2 hPa 0,0 l/m 0,2 km/h (0 Bft) SO 135 -2,2 C 2,9 C 1,9 km/h (1 Bft)
12.02.2015 16:30 3,3 C 1,2 C 67 % 67 % 1024,2 hPa 0,0 l/m 0,3 km/h (0 Bft) S-SO 157 -2,2 C 2,6 C 1,9 km/h (1 Bft)
12.02.2015 16:35 3,1 C 1,2 C 67 % 67 % 1023,8 hPa 0,0 l/m 0,6 km/h (0 Bft) SO 135 -2,4 C 2,4 C 2,4 km/h (1 Bft)
12.02.2015 16:40 3,0 C 1,2 C 67 % 67 % 1023,8 hPa 0,0 l/m 1,6 km/h (1 Bft) S-SO 157 -2,5 C 2,3 C 3,1 km/h (1 Bft)
12.02.2015 16:45 2,9 C 1,2 C 68 % 68 % 1023,8 hPa 0,0 l/m 2,4 km/h (1 Bft) S-SO 157 -2,4 C 2,2 C 2,9 km/h (1 Bft)
12.02.2015 16:50 2,7 C 1,2 C 68 % 68 % 1023,8 hPa 0,0 l/m 2,6 km/h (1 Bft) S-SO 157 -2,6 C 2,2 C 3,4 km/h (1 Bft)
12.02.2015 16:55 2,5 C 1,2 C 69 % 69 % 1023,4 hPa 0,0 l/m 2,7 km/h (1 Bft) S-SO 157 -2,6 C 1,9 C 3,1 km/h (1 Bft)
12.02.2015 17:00 2,3 C 1,2 C 69 % 69 % 1023,4 hPa 0,0 l/m 2,4 km/h (1 Bft) SO 135 -2,8 C 1,8 C 3,5 km/h (1 Bft)
12.02.2015 17:05 2,0 C 1,1 C 69 % 69 % 1023,4 hPa 0,0 l/m 2,3 km/h (1 Bft) S-SO 157 -3,1 C 1,6 C 2,3 km/h (1 Bft)
12.02.2015 17:10 1,7 C 1,1 C 69 % 69 % 1023,4 hPa 0,0 l/m 1,4 km/h (1 Bft) S-SO 157 -3,4 C 1,3 C 0,0 km/h (0 Bft)
12.02.2015 17:15 1,3 C 1,1 C 69 % 69 % 1023,4 hPa 0,0 l/m 0,8 km/h (0 Bft) S-SO 157 -3,7 C 0,9 C 0,0 km/h (0 Bft)
12.02.2015 17:20 1,0 C 1,1 C 72 % 72 % 1023,4 hPa 0,0 l/m 0,3 km/h (0 Bft) S-SO 157 -3,5 C 0,3 C 2,1 km/h (1 Bft)
12.02.2015 17:25 0,9 C 1,1 C 73 % 73 % 1023,4 hPa 0,0 l/m 0,3 km/h (0 Bft) SO 135 -3,4 C 0,0 C 0,0 km/h (0 Bft)
12.02.2015 17:30 0,5 C 1,1 C 73 % 73 % 1023,4 hPa 0,0 l/m 0,3 km/h (0 Bft) S-SO 157 -3,8 C -0,4 C 0,0 km/h (0 Bft)
12.02.2015 17:35 0,5 C 1,1 C 73 % 73 % 1023,6 hPa 0,0 l/m 0,8 km/h (0 Bft) S-SO 157 -3,8 C -0,7 C 2,6 km/h (1 Bft)
12.02.2015 17:40 0,3 C 1,2 C 73 % 73 % 1023,6 hPa 0,0 l/m 1,4 km/h (1 Bft) SO 135 -4,0 C -0,8 C 0,0 km/h (0 Bft)
12.02.2015 17:45 -0,1 C 1,2 C 73 % 73 % 1023,6 hPa 0,0 l/m 1,3 km/h (1 Bft) S-SO 157 -4,3 C -1,1 C 0,0 km/h (0 Bft)
12.02.2015 17:50 -0,9 C 1,2 C 74 % 74 % 1023,6 hPa 0,0 l/m 0,5 km/h (0 Bft) O-SO 112 -4,9 C -1,7 C 0,0 km/h (0 Bft)
12.02.2015 17:55 -1,1 C 1,2 C 75 % 75 % 1023,7 hPa 0,0 l/m 0,2 km/h (0 Bft) SO 135 -5,0 C -2,2 C 0,0 km/h (0 Bft)
12.02.2015 18:00 -1,7 C 1,2 C 75 % 75 % 1023,7 hPa 0,0 l/m 0,0 km/h (0 Bft) SO 135 -5,5 C -2,8 C 0,0 km/h (0 Bft)
12.02.2015 18:05 -1,6 C 1,2 C 76 % 76 % 1023,7 hPa 0,0 l/m 0,0 km/h (0 Bft) SO 135 -5,3 C -3,1 C 0,0 km/h (0 Bft)
12.02.2015 18:10 -1,5 C 1,2 C 76 % 76 % 1023,7 hPa 0,0 l/m 0,0 km/h (0 Bft) SO 135 -5,2 C -3,2 C 0,0 km/h (0 Bft)
12.02.2015 18:15 -1,7 C 1,2 C 77 % 77 % 1023,9 hPa 0,0 l/m 0,0 km/h (0 Bft) O-SO 112 -5,2 C -3,2 C 0,0 km/h (0 Bft)
12.02.2015 18:20 -1,9 C 1,2 C 77 % 77 % 1023,9 hPa 0,0 l/m 0,0 km/h (0 Bft) O 90 -5,4 C -3,4 C 0,0 km/h (0 Bft)
12.02.2015 18:25 -1,7 C 1,2 C 78 % 78 % 1023,9 hPa 0,0 l/m 0,0 km/h (0 Bft) SO 135 -5,0 C -3,5 C 0,0 km/h (0 Bft)
12.02.2015 18:30 -1,9 C 1,2 C 78 % 78 % 1023,9 hPa 0,0 l/m 0,2 km/h (0 Bft) O-SO 112 -5,2 C -3,4 C 0,0 km/h (0 Bft)
12.02.2015 18:35 -1,9 C 1,2 C 78 % 78 % 1023,9 hPa 0,0 l/m 0,2 km/h (0 Bft) O-SO 112 -5,2 C -3,4 C 1,9 km/h (1 Bft)
12.02.2015 18:40 -2,4 C 1,2 C 78 % 78 % 1023,9 hPa 0,0 l/m 0,2 km/h (0 Bft) O-NO 67 -5,7 C -3,6 C 0,0 km/h (0 Bft)
12.02.2015 18:45 -2,8 C 1,2 C 78 % 78 % 1023,9 hPa 0,0 l/m 0,2 km/h (0 Bft) O-NO 67 -6,1 C -4,0 C 1,8 km/h (1 Bft)
12.02.2015 18:50 -3,3 C 1,2 C 78 % 78 % 1023,9 hPa 0,0 l/m 0,2 km/h (0 Bft) O-NO 67 -6,6 C -4,3 C 0,0 km/h (0 Bft)
12.02.2015 18:55 -3,6 C 1,1 C 78 % 78 % 1024,0 hPa 0,0 l/m 0,2 km/h (0 Bft) NO 45 -6,9 C -4,6 C 0,0 km/h (0 Bft)
12.02.2015 19:00 -4,0 C 1,1 C 78 % 78 % 1024,0 hPa 0,0 l/m 0,0 km/h (0 Bft) O-NO 67 -7,3 C -5,0 C 0,0 km/h (0 Bft)
12.02.2015 19:05 -3,7 C 1,1 C 78 % 78 % 1024,0 hPa 0,0 l/m 0,0 km/h (0 Bft) O-NO 67 -7,0 C -5,2 C 0,0 km/h (0 Bft)
12.02.2015 19:10 -3,7 C 1,1 C 78 % 78 % 1024,0 hPa 0,0 l/m 0,2 km/h (0 Bft) SO 135 -7,0 C -5,2 C 2,3 km/h (1 Bft)
12.02.2015 19:15 -3,7 C 1,1 C 79 % 79 % 1024,1 hPa 0,0 l/m 0,3 km/h (0 Bft) O-NO 67 -6,8 C -5,0 C 0,0 km/h (0 Bft)
12.02.2015 19:20 -3,6 C 1,1 C 79 % 79 % 1024,1 hPa 0,0 l/m 0,5 km/h (0 Bft) O-SO 112 -6,7 C -4,8 C 0,0 km/h (0 Bft)
12.02.2015 19:25 -3,5 C 1,1 C 79 % 79 % 1024,1 hPa 0,0 l/m 0,2 km/h (0 Bft) SO 135 -6,6 C -4,6 C 0,0 km/h (0 Bft)
12.02.2015 19:30 -3,6 C 1,1 C 79 % 79 % 1024,1 hPa 0,0 l/m 0,0 km/h (0 Bft) O-NO 67 -6,7 C -4,6 C 0,0 km/h (0 Bft)
12.02.2015 19:35 -4,2 C 1,1 C 79 % 79 % 1024,3 hPa 0,0 l/m 0,0 km/h (0 Bft) O 90 -7,3 C -4,9 C 0,0 km/h (0 Bft)
12.02.2015 19:40 -4,6 C 1,1 C 79 % 79 % 1024,3 hPa 0,0 l/m 0,0 km/h (0 Bft) O-NO 67 -7,7 C -5,4 C 0,0 km/h (0 Bft)
12.02.2015 19:45 -5,0 C 1,1 C 79 % 79 % 1024,3 hPa 0,0 l/m 0,0 km/h (0 Bft) O-NO 67 -8,1 C -5,7 C 0,0 km/h (0 Bft)
12.02.2015 19:50 -5,4 C 1,1 C 79 % 79 % 1024,3 hPa 0,0 l/m 0,0 km/h (0 Bft) O-NO 67 -8,5 C -6,0 C 0,0 km/h (0 Bft)
12.02.2015 19:55 -5,4 C 1,1 C 79 % 79 % 1024,3 hPa 0,0 l/m 0,0 km/h (0 Bft) O-NO 67 -8,5 C -6,1 C 0,0 km/h (0 Bft)
12.02.2015 20:00 -5,1 C 1,1 C 79 % 79 % 1024,3 hPa 0,0 l/m 0,3 km/h (0 Bft) O-NO 67 -8,2 C -6,1 C 0,0 km/h (0 Bft)
12.02.2015 20:05 -5,3 C 1,1 C 79 % 79 % 1024,3 hPa 0,0 l/m 0,3 km/h (0 Bft) O-NO 67 -8,4 C -6,1 C 0,0 km/h (0 Bft)
12.02.2015 20:10 -4,5 C 1,1 C 80 % 80 % 1024,3 hPa 0,0 l/m 0,6 km/h (0 Bft) SO 135 -7,4 C -5,7 C 2,7 km/h (1 Bft)
12.02.2015 20:15 -4,1 C 1,1 C 81 % 81 % 1024,3 hPa 0,0 l/m 1,3 km/h (1 Bft) O-SO 112 -6,9 C -5,1 C 2,7 km/h (1 Bft)
12.02.2015 20:20 -4,5 C 1,1 C 80 % 80 % 1024,3 hPa 0,0 l/m 1,9 km/h (1 Bft) O-SO 112 -7,4 C -4,9 C 4,2 km/h (1 Bft)
12.02.2015 20:25 -4,4 C 1,1 C 81 % 81 % 1024,3 hPa 0,0 l/m 1,3 km/h (1 Bft) O-NO 67 -7,2 C -4,9 C 0,0 km/h (0 Bft)
12.02.2015 20:30 -4,5 C 1,1 C 81 % 81 % 1024,3 hPa 0,0 l/m 0,6 km/h (0 Bft) O-SO 112 -7,3 C -5,1 C 0,0 km/h (0 Bft)
12.02.2015 20:35 -4,9 C 1,1 C 80 % 80 % 1024,4 hPa 0,0 l/m 0,5 km/h (0 Bft) NO 45 -7,8 C -5,3 C 0,0 km/h (0 Bft)
12.02.2015 20:40 -5,5 C 1,1 C 80 % 80 % 1024,4 hPa 0,0 l/m 0,0 km/h (0 Bft) O-SO 112 -8,4 C -5,8 C 0,0 km/h (0 Bft)
12.02.2015 20:45 -5,5 C 1,1 C 80 % 80 % 1024,4 hPa 0,0 l/m 0,0 km/h (0 Bft) O-NO 67 -8,4 C -6,0 C 0,0 km/h (0 Bft)
12.02.2015 20:50 -5,5 C 1,1 C 80 % 80 % 1024,4 hPa 0,0 l/m 0,0 km/h (0 Bft) NO 45 -8,4 C -6,1 C 0,0 km/h (0 Bft)
12.02.2015 20:55 -5,4 C 1,2 C 81 % 81 % 1024,3 hPa 0,0 l/m 0,0 km/h (0 Bft) SO 135 -8,1 C -6,4 C 0,0 km/h (0 Bft)
12.02.2015 21:00 -5,4 C 1,1 C 80 % 80 % 1024,3 hPa 0,0 l/m 0,0 km/h (0 Bft) O-NO 67 -8,3 C -6,1 C 0,0 km/h (0 Bft)
12.02.2015 21:05 -5,8 C 1,2 C 80 % 80 % 1024,3 hPa 0,0 l/m 0,0 km/h (0 Bft) S-SO 157 -8,7 C -6,3 C 0,0 km/h (0 Bft)
12.02.2015 21:10 -6,2 C 1,2 C 80 % 80 % 1024,3 hPa 0,0 l/m 0,0 km/h (0 Bft) SO 135 -9,1 C -6,6 C 0,0 km/h (0 Bft)
12.02.2015 21:15 -6,1 C 1,2 C 80 % 80 % 1024,2 hPa 0,0 l/m 0,0 km/h (0 Bft) O 90 -9,0 C -6,6 C 0,0 km/h (0 Bft)
12.02.2015 21:20 -6,1 C 1,2 C 80 % 80 % 1024,2 hPa 0,0 l/m 0,0 km/h (0 Bft) SO 135 -9,0 C -6,6 C 0,0 km/h (0 Bft)
12.02.2015 21:25 -6,0 C 1,2 C 81 % 81 % 1024,2 hPa 0,0 l/m 0,0 km/h (0 Bft) O 90 -8,7 C -6,6 C 0,0 km/h (0 Bft)
12.02.2015 21:30 -5,3 C 1,2 C 81 % 81 % 1024,2 hPa 0,0 l/m 0,0 km/h (0 Bft) S 180 -8,0 C -6,3 C 0,0 km/h (0 Bft)
12.02.2015 21:35 -4,7 C 1,1 C 81 % 81 % 1024,1 hPa 0,0 l/m 0,2 km/h (0 Bft) SO 135 -7,4 C -5,9 C 1,6 km/h (1 Bft)
12.02.2015 21:40 -4,9 C 1,1 C 81 % 81 % 1024,1 hPa 0,0 l/m 0,5 km/h (0 Bft) O-NO 67 -7,6 C -5,5 C 0,0 km/h (0 Bft)
12.02.2015 21:45 -5,4 C 1,1 C 81 % 81 % 1024,1 hPa 0,0 l/m 0,5 km/h (0 Bft) O-SO 112 -8,1 C -5,6 C 0,0 km/h (0 Bft)
12.02.2015 21:50 -5,6 C 1,1 C 81 % 81 % 1024,1 hPa 0,0 l/m 0,0 km/h (0 Bft) SO 135 -8,3 C -6,0 C 0,0 km/h (0 Bft)
12.02.2015 21:55 -5,8 C 1,2 C 81 % 81 % 1023,9 hPa 0,0 l/m 0,0 km/h (0 Bft) O-SO 112 -8,5 C -6,4 C 0,0 km/h (0 Bft)
12.02.2015 22:00 -6,2 C 1,2 C 81 % 81 % 1023,9 hPa 0,0 l/m 0,0 km/h (0 Bft) O-NO 67 -8,9 C -6,6 C 0,0 km/h (0 Bft)
12.02.2015 22:05 -6,4 C 1,2 C 81 % 81 % 1023,9 hPa 0,0 l/m 0,0 km/h (0 Bft) O-NO 67 -9,1 C -6,7 C 0,0 km/h (0 Bft)
12.02.2015 22:10 -6,7 C 1,2 C 80 % 80 % 1023,9 hPa 0,0 l/m 0,0 km/h (0 Bft) SO 135 -9,6 C -7,2 C 0,0 km/h (0 Bft)
12.02.2015 22:15 -6,7 C 1,2 C 80 % 80 % 1024,0 hPa 0,0 l/m 0,0 km/h (0 Bft) O-SO 112 -9,6 C -7,3 C 0,0 km/h (0 Bft)
12.02.2015 22:20 -6,3 C 1,2 C 81 % 81 % 1024,0 hPa 0,0 l/m 0,0 km/h (0 Bft) O 90 -9,0 C -7,1 C 0,0 km/h (0 Bft)
12.02.2015 22:25 -6,3 C 1,2 C 81 % 81 % 1024,0 hPa 0,0 l/m 0,0 km/h (0 Bft) S-SO 157 -9,0 C -7,1 C 0,0 km/h (0 Bft)
12.02.2015 22:30 -6,1 C 1,2 C 81 % 81 % 1024,0 hPa 0,0 l/m 0,0 km/h (0 Bft) S 180 -8,8 C -7,1 C 0,0 km/h (0 Bft)
12.02.2015 22:35 -6,3 C 1,2 C 81 % 81 % 1023,9 hPa 0,0 l/m 0,0 km/h (0 Bft) S 180 -9,0 C -7,2 C 0,0 km/h (0 Bft)
12.02.2015 22:40 -6,7 C 1,2 C 81 % 81 % 1023,9 hPa 0,0 l/m 0,0 km/h (0 Bft) S 180 -9,4 C -7,4 C 0,0 km/h (0 Bft)
12.02.2015 22:45 -6,3 C 1,2 C 81 % 81 % 1023,9 hPa 0,0 l/m 0,0 km/h (0 Bft) S-SO 157 -9,0 C -7,5 C 0,0 km/h (0 Bft)
12.02.2015 22:50 -5,7 C 1,2 C 81 % 81 % 1023,9 hPa 0,0 l/m 0,0 km/h (0 Bft) S 180 -8,4 C -7,0 C 0,0 km/h (0 Bft)
12.02.2015 22:55 -6,0 C 1,2 C 81 % 81 % 1023,8 hPa 0,0 l/m 0,0 km/h (0 Bft) SO 135 -8,7 C -6,9 C 0,0 km/h (0 Bft)
12.02.2015 23:00 -6,6 C 1,2 C 81 % 81 % 1023,8 hPa 0,0 l/m 0,0 km/h (0 Bft) O-NO 67 -9,3 C -7,0 C 0,0 km/h (0 Bft)
12.02.2015 23:05 -6,6 C 1,2 C 81 % 81 % 1023,8 hPa 0,0 l/m 0,0 km/h (0 Bft) O-SO 112 -9,3 C -7,2 C 0,0 km/h (0 Bft)
12.02.2015 23:10 -6,6 C 1,2 C 81 % 81 % 1023,8 hPa 0,0 l/m 0,0 km/h (0 Bft) SO 135 -9,3 C -7,3 C 0,0 km/h (0 Bft)
12.02.2015 23:15 -6,6 C 1,2 C 81 % 81 % 1023,9 hPa 0,0 l/m 0,0 km/h (0 Bft) SO 135 -9,3 C -7,5 C 0,0 km/h (0 Bft)
12.02.2015 23:20 -7,1 C 1,2 C 80 % 80 % 1023,9 hPa 0,0 l/m 0,0 km/h (0 Bft) SO 135 -9,9 C -7,7 C 0,0 km/h (0 Bft)
12.02.2015 23:25 -7,2 C 1,2 C 80 % 80 % 1023,9 hPa 0,0 l/m 0,0 km/h (0 Bft) O-SO 112 -10,0 C -7,8 C 0,0 km/h (0 Bft)
12.02.2015 23:30 -6,9 C 1,2 C 81 % 81 % 1023,9 hPa 0,0 l/m 0,0 km/h (0 Bft) S 180 -9,6 C -7,8 C 0,0 km/h (0 Bft)
12.02.2015 23:35 -6,7 C 1,2 C 81 % 81 % 1023,9 hPa 0,0 l/m 0,0 km/h (0 Bft) S 180 -9,4 C -7,8 C 0,0 km/h (0 Bft)
12.02.2015 23:40 -6,9 C 1,2 C 81 % 81 % 1023,9 hPa 0,0 l/m 0,0 km/h (0 Bft) S 180 -9,6 C -7,8 C 0,0 km/h (0 Bft)
12.02.2015 23:45 -7,3 C 1,2 C 80 % 80 % 1023,9 hPa 0,0 l/m 0,0 km/h (0 Bft) S 180 -10,1 C -8,1 C 0,0 km/h (0 Bft)
12.02.2015 23:50 -7,7 C 1,2 C 80 % 80 % 1023,9 hPa 0,0 l/m 0,0 km/h (0 Bft) S 180 -10,5 C -8,2 C 0,0 km/h (0 Bft)
12.02.2015 23:55 -7,6 C 1,2 C 80 % 80 % 1023,7 hPa 0,0 l/m 0,0 km/h (0 Bft) S 180 -10,4 C -8,2 C 0,0 km/h (0 Bft)
_ Min-Zeit 03:35 21:50 15:35 15:35 17:30 - 23:55 - - 03:35 02:50 23:55
Minimum _ -10,7 C 1,1 C 58 % 58 % 1023,4 hPa - 0,0 km/h (0 Bft) - - -13,6 C -10,9 C 0,0 km/h (0 Bft)
_ Max-Zeit 14:45 11:35 12:35 12:35 12:50 23:55 16:55 - - 14:05 14:50 20:20
Maximum _ 12,6 C 1,4 C 86 % 86 % 1027,2 hPa 0,0 l/m 2,7 km/h
S-SO (1 Bft)
- - 6,1 C 18,3 C 4,2 km/h
O-SO (1 Bft)
Durchschnitt _ -3,8 C 1,3 C 78 % 78 % 1024,4 hPa #0,0 l/m 0,1 km/h (0 Bft) S-SO - -7,2 C -3,1 C 0,2 km/h (0 Bft)